Lake City, South Carolina
Current Conditions -  °F | °C
As of 5:35 AM on Monday 20 Oct 2014 (Local Time) from KCKI Reporting Station
Clear Clear  
Wind Chill: 43°   Ceiling: Unl
Heat Index: 43°   Visibility: 10mi
Dew Point: 43°   Wind: 0mph
Humidity: 100%   Direction: NA
Pressure: 30.14"   Gusts: NA
Location:  33.87°N, 79.75°W
Report Text: KCKI 200935Z AUTO 00000KT 10SM CLR 06/06 A3014 RMK AO2
Loading
Personal Weather Stations






























Interactive Weather Map
Tropical Storm Tracking
New forecast layout! Learn more

10-Day Weather Forecast

Advertisements
Track Severe Weather on mobile